sensor_id;sensor_type;location;lat;lon;timestamp;P1;durP1;ratioP1;P2;durP2;ratioP2
11490;SDS011;5802;52.832;4.758;2023-06-14T00:01:45;8.85;;;2.47;;
11490;SDS011;5802;52.832;4.758;2023-06-14T00:04:12;5.82;;;2.13;;
11490;SDS011;5802;52.832;4.758;2023-06-14T00:06:41;9.98;;;2.30;;
11490;SDS011;5802;52.832;4.758;2023-06-14T00:09:10;10.68;;;3.03;;
11490;SDS011;5802;52.832;4.758;2023-06-14T00:11:39;9.25;;;2.72;;
11490;SDS011;5802;52.832;4.758;2023-06-14T00:14:05;7.43;;;2.20;;
11490;SDS011;5802;52.832;4.758;2023-06-14T00:16:32;3.97;;;2.28;;
11490;SDS011;5802;52.832;4.758;2023-06-14T00:19:00;6.03;;;2.53;;
11490;SDS011;5802;52.832;4.758;2023-06-14T00:21:28;4.55;;;2.08;;
11490;SDS011;5802;52.832;4.758;2023-06-14T00:23:55;5.53;;;2.10;;
11490;SDS011;5802;52.832;4.758;2023-06-14T00:26:21;4.20;;;2.20;;
11490;SDS011;5802;52.832;4.758;2023-06-14T00:28:49;7.63;;;1.90;;
11490;SDS011;5802;52.832;4.758;2023-06-14T00:31:16;2.78;;;1.83;;
11490;SDS011;5802;52.832;4.758;2023-06-14T00:33:43;3.13;;;2.03;;
11490;SDS011;5802;52.832;4.758;2023-06-14T00:36:09;4.57;;;2.20;;
11490;SDS011;5802;52.832;4.758;2023-06-14T00:38:36;4.53;;;2.15;;
11490;SDS011;5802;52.832;4.758;2023-06-14T00:41:03;4.80;;;2.00;;
11490;SDS011;5802;52.832;4.758;2023-06-14T00:43:30;7.07;;;2.40;;
11490;SDS011;5802;52.832;4.758;2023-06-14T00:45:58;4.32;;;1.80;;
11490;SDS011;5802;52.832;4.758;2023-06-14T00:48:24;2.10;;;1.90;;
11490;SDS011;5802;52.832;4.758;2023-06-14T00:50:51;4.97;;;2.15;;
11490;SDS011;5802;52.832;4.758;2023-06-14T00:53:18;2.70;;;1.90;;
11490;SDS011;5802;52.832;4.758;2023-06-14T00:55:48;4.90;;;2.15;;
11490;SDS011;5802;52.832;4.758;2023-06-14T00:58:14;3.28;;;2.03;;
11490;SDS011;5802;52.832;4.758;2023-06-14T01:00:41;5.20;;;1.88;;
11490;SDS011;5802;52.832;4.758;2023-06-14T01:03:10;2.83;;;2.00;;
11490;SDS011;5802;52.832;4.758;2023-06-14T01:05:37;3.47;;;2.05;;
11490;SDS011;5802;52.832;4.758;2023-06-14T01:08:08;3.03;;;1.88;;
11490;SDS011;5802;52.832;4.758;2023-06-14T01:10:52;2.90;;;1.77;;
11490;SDS011;5802;52.832;4.758;2023-06-14T01:13:27;4.75;;;1.90;;
11490;SDS011;5802;52.832;4.758;2023-06-14T01:15:58;2.55;;;1.75;;
11490;SDS011;5802;52.832;4.758;2023-06-14T01:18:27;3.83;;;2.00;;
11490;SDS011;5802;52.832;4.758;2023-06-14T01:20:54;3.35;;;2.15;;
11490;SDS011;5802;52.832;4.758;2023-06-14T01:23:23;4.13;;;1.83;;
11490;SDS011;5802;52.832;4.758;2023-06-14T01:25:50;3.97;;;2.13;;
11490;SDS011;5802;52.832;4.758;2023-06-14T01:28:18;3.53;;;2.05;;
11490;SDS011;5802;52.832;4.758;2023-06-14T01:30:46;3.60;;;2.20;;
11490;SDS011;5802;52.832;4.758;2023-06-14T01:33:17;4.03;;;1.77;;
11490;SDS011;5802;52.832;4.758;2023-06-14T01:35:46;2.83;;;1.80;;
11490;SDS011;5802;52.832;4.758;2023-06-14T01:38:14;3.15;;;1.90;;
11490;SDS011;5802;52.832;4.758;2023-06-14T01:40:44;3.38;;;1.98;;
11490;SDS011;5802;52.832;4.758;2023-06-14T01:43:13;4.28;;;1.98;;
11490;SDS011;5802;52.832;4.758;2023-06-14T01:45:41;4.18;;;1.88;;
11490;SDS011;5802;52.832;4.758;2023-06-14T01:48:08;2.55;;;1.70;;
11490;SDS011;5802;52.832;4.758;2023-06-14T01:50:35;4.13;;;1.98;;
11490;SDS011;5802;52.832;4.758;2023-06-14T01:53:02;3.47;;;1.88;;
11490;SDS011;5802;52.832;4.758;2023-06-14T01:55:29;3.67;;;1.85;;
11490;SDS011;5802;52.832;4.758;2023-06-14T01:58:00;3.25;;;1.73;;
11490;SDS011;5802;52.832;4.758;2023-06-14T02:00:26;4.10;;;1.88;;
11490;SDS011;5802;52.832;4.758;2023-06-14T02:02:53;2.80;;;1.80;;
11490;SDS011;5802;52.832;4.758;2023-06-14T02:05:20;2.15;;;1.90;;
11490;SDS011;5802;52.832;4.758;2023-06-14T02:07:47;2.30;;;1.50;;
11490;SDS011;5802;52.832;4.758;2023-06-14T02:10:14;2.53;;;1.80;;
11490;SDS011;5802;52.832;4.758;2023-06-14T02:12:42;2.63;;;1.67;;
11490;SDS011;5802;52.832;4.758;2023-06-14T02:15:10;3.17;;;1.40;;
11490;SDS011;5802;52.832;4.758;2023-06-14T02:17:41;2.95;;;1.63;;
11490;SDS011;5802;52.832;4.758;2023-06-14T02:20:08;2.20;;;1.58;;
11490;SDS011;5802;52.832;4.758;2023-06-14T02:22:36;3.97;;;1.95;;
11490;SDS011;5802;52.832;4.758;2023-06-14T02:25:03;3.97;;;1.48;;
11490;SDS011;5802;52.832;4.758;2023-06-14T02:27:30;4.15;;;1.70;;
11490;SDS011;5802;52.832;4.758;2023-06-14T02:29:57;2.88;;;1.55;;
11490;SDS011;5802;52.832;4.758;2023-06-14T02:32:25;2.10;;;1.50;;
11490;SDS011;5802;52.832;4.758;2023-06-14T02:34:52;3.00;;;1.60;;
11490;SDS011;5802;52.832;4.758;2023-06-14T02:37:19;2.53;;;1.80;;
11490;SDS011;5802;52.832;4.758;2023-06-14T02:39:46;2.40;;;1.63;;
11490;SDS011;5802;52.832;4.758;2023-06-14T02:42:13;2.47;;;1.70;;
11490;SDS011;5802;52.832;4.758;2023-06-14T02:44:40;2.65;;;1.70;;
11490;SDS011;5802;52.832;4.758;2023-06-14T02:47:06;3.38;;;1.63;;
11490;SDS011;5802;52.832;4.758;2023-06-14T02:49:35;2.30;;;1.63;;
11490;SDS011;5802;52.832;4.758;2023-06-14T02:52:02;3.08;;;1.80;;
11490;SDS011;5802;52.832;4.758;2023-06-14T02:54:28;3.45;;;1.67;;
11490;SDS011;5802;52.832;4.758;2023-06-14T02:56:55;1.92;;;1.60;;
11490;SDS011;5802;52.832;4.758;2023-06-14T02:59:22;2.10;;;1.83;;
11490;SDS011;5802;52.832;4.758;2023-06-14T03:01:50;1.70;;;1.55;;
11490;SDS011;5802;52.832;4.758;2023-06-14T03:04:16;2.50;;;1.60;;
11490;SDS011;5802;52.832;4.758;2023-06-14T03:06:44;2.60;;;1.88;;
11490;SDS011;5802;52.832;4.758;2023-06-14T03:09:15;2.28;;;1.83;;
11490;SDS011;5802;52.832;4.758;2023-06-14T03:11:41;2.92;;;1.80;;
11490;SDS011;5802;52.832;4.758;2023-06-14T03:14:08;3.83;;;1.88;;
11490;SDS011;5802;52.832;4.758;2023-06-14T03:16:36;2.83;;;1.48;;
11490;SDS011;5802;52.832;4.758;2023-06-14T03:19:03;3.95;;;1.80;;
11490;SDS011;5802;52.832;4.758;2023-06-14T03:21:29;2.38;;;1.60;;
11490;SDS011;5802;52.832;4.758;2023-06-14T03:23:58;2.67;;;1.65;;
11490;SDS011;5802;52.832;4.758;2023-06-14T03:26:25;2.80;;;1.50;;
11490;SDS011;5802;52.832;4.758;2023-06-14T03:28:52;2.22;;;1.83;;
11490;SDS011;5802;52.832;4.758;2023-06-14T03:31:19;2.97;;;1.65;;
11490;SDS011;5802;52.832;4.758;2023-06-14T03:33:46;2.15;;;1.80;;
11490;SDS011;5802;52.832;4.758;2023-06-14T03:36:13;2.00;;;1.55;;
11490;SDS011;5802;52.832;4.758;2023-06-14T03:38:39;2.90;;;1.65;;
11490;SDS011;5802;52.832;4.758;2023-06-14T03:41:07;2.78;;;1.67;;
11490;SDS011;5802;52.832;4.758;2023-06-14T03:43:34;3.10;;;1.33;;
11490;SDS011;5802;52.832;4.758;2023-06-14T03:46:01;2.40;;;1.60;;
11490;SDS011;5802;52.832;4.758;2023-06-14T03:48:27;1.75;;;1.50;;
11490;SDS011;5802;52.832;4.758;2023-06-14T03:50:54;2.78;;;1.45;;
11490;SDS011;5802;52.832;4.758;2023-06-14T03:53:21;2.72;;;1.60;;
11490;SDS011;5802;52.832;4.758;2023-06-14T03:55:49;3.03;;;1.77;;
11490;SDS011;5802;52.832;4.758;2023-06-14T03:58:18;3.60;;;1.60;;
11490;SDS011;5802;52.832;4.758;2023-06-14T04:00:45;3.72;;;1.80;;
11490;SDS011;5802;52.832;4.758;2023-06-14T04:03:12;2.08;;;1.65;;
11490;SDS011;5802;52.832;4.758;2023-06-14T04:05:40;1.95;;;1.50;;
11490;SDS011;5802;52.832;4.758;2023-06-14T04:08:07;2.63;;;1.60;;
11490;SDS011;5802;52.832;4.758;2023-06-14T04:10:35;1.73;;;1.40;;
11490;SDS011;5802;52.832;4.758;2023-06-14T04:13:01;2.78;;;1.60;;
11490;SDS011;5802;52.832;4.758;2023-06-14T04:15:31;1.58;;;1.40;;
11490;SDS011;5802;52.832;4.758;2023-06-14T04:17:57;2.03;;;1.73;;
11490;SDS011;5802;52.832;4.758;2023-06-14T04:20:24;1.55;;;1.45;;
11490;SDS011;5802;52.832;4.758;2023-06-14T04:22:51;1.73;;;1.55;;
11490;SDS011;5802;52.832;4.758;2023-06-14T04:25:18;2.30;;;1.45;;
11490;SDS011;5802;52.832;4.758;2023-06-14T04:27:45;3.33;;;1.67;;
11490;SDS011;5802;52.832;4.758;2023-06-14T04:30:13;2.78;;;1.50;;
11490;SDS011;5802;52.832;4.758;2023-06-14T04:32:41;2.38;;;1.75;;
11490;SDS011;5802;52.832;4.758;2023-06-14T04:35:09;3.38;;;1.70;;
11490;SDS011;5802;52.832;4.758;2023-06-14T04:37:36;2.13;;;1.45;;
11490;SDS011;5802;52.832;4.758;2023-06-14T04:40:09;2.00;;;1.65;;
11490;SDS011;5802;52.832;4.758;2023-06-14T04:42:36;2.85;;;1.83;;
11490;SDS011;5802;52.832;4.758;2023-06-14T04:45:03;2.58;;;1.48;;
11490;SDS011;5802;52.832;4.758;2023-06-14T04:47:32;2.33;;;1.73;;
11490;SDS011;5802;52.832;4.758;2023-06-14T04:50:00;2.33;;;1.55;;
11490;SDS011;5802;52.832;4.758;2023-06-14T04:52:28;5.25;;;1.73;;
11490;SDS011;5802;52.832;4.758;2023-06-14T04:54:56;2.08;;;1.60;;
11490;SDS011;5802;52.832;4.758;2023-06-14T04:57:24;1.80;;;1.60;;
11490;SDS011;5802;52.832;4.758;2023-06-14T04:59:50;2.75;;;1.58;;
11490;SDS011;5802;52.832;4.758;2023-06-14T05:02:19;2.92;;;1.50;;
11490;SDS011;5802;52.832;4.758;2023-06-14T05:04:50;1.90;;;1.50;;
11490;SDS011;5802;52.832;4.758;2023-06-14T05:07:18;1.63;;;1.42;;
11490;SDS011;5802;52.832;4.758;2023-06-14T05:09:48;2.03;;;1.60;;
11490;SDS011;5802;52.832;4.758;2023-06-14T05:12:15;3.50;;;1.67;;
11490;SDS011;5802;52.832;4.758;2023-06-14T05:14:43;2.40;;;1.70;;
11490;SDS011;5802;52.832;4.758;2023-06-14T05:17:11;3.50;;;1.75;;
11490;SDS011;5802;52.832;4.758;2023-06-14T05:19:38;3.97;;;1.80;;
11490;SDS011;5802;52.832;4.758;2023-06-14T05:22:05;2.47;;;1.58;;
11490;SDS011;5802;52.832;4.758;2023-06-14T05:24:33;2.22;;;1.70;;
11490;SDS011;5802;52.832;4.758;2023-06-14T05:27:00;2.20;;;1.65;;
11490;SDS011;5802;52.832;4.758;2023-06-14T05:29:27;2.75;;;1.70;;
11490;SDS011;5802;52.832;4.758;2023-06-14T05:31:53;2.78;;;1.80;;
11490;SDS011;5802;52.832;4.758;2023-06-14T05:34:20;4.47;;;1.83;;
11490;SDS011;5802;52.832;4.758;2023-06-14T05:36:47;2.28;;;1.60;;
11490;SDS011;5802;52.832;4.758;2023-06-14T05:39:13;2.03;;;1.50;;
11490;SDS011;5802;52.832;4.758;2023-06-14T05:41:42;4.10;;;1.60;;
11490;SDS011;5802;52.832;4.758;2023-06-14T05:44:08;3.17;;;1.60;;
11490;SDS011;5802;52.832;4.758;2023-06-14T05:46:35;2.78;;;1.50;;
11490;SDS011;5802;52.832;4.758;2023-06-14T05:49:04;2.75;;;1.52;;
11490;SDS011;5802;52.832;4.758;2023-06-14T05:51:31;2.47;;;1.70;;
11490;SDS011;5802;52.832;4.758;2023-06-14T05:53:58;4.32;;;1.73;;
11490;SDS011;5802;52.832;4.758;2023-06-14T05:56:25;1.75;;;1.50;;
11490;SDS011;5802;52.832;4.758;2023-06-14T05:58:53;3.75;;;1.90;;
11490;SDS011;5802;52.832;4.758;2023-06-14T06:01:20;3.15;;;1.60;;
11490;SDS011;5802;52.832;4.758;2023-06-14T06:03:46;4.90;;;1.65;;
11490;SDS011;5802;52.832;4.758;2023-06-14T06:06:13;2.17;;;1.80;;
11490;SDS011;5802;52.832;4.758;2023-06-14T06:08:41;3.88;;;1.75;;
11490;SDS011;5802;52.832;4.758;2023-06-14T06:11:08;3.97;;;1.90;;
11490;SDS011;5802;52.832;4.758;2023-06-14T06:13:35;5.22;;;1.90;;
11490;SDS011;5802;52.832;4.758;2023-06-14T06:16:05;5.22;;;1.70;;
11490;SDS011;5802;52.832;4.758;2023-06-14T06:18:32;3.53;;;2.17;;
11490;SDS011;5802;52.832;4.758;2023-06-14T06:20:59;3.45;;;1.80;;
11490;SDS011;5802;52.832;4.758;2023-06-14T06:23:26;5.47;;;2.00;;
11490;SDS011;5802;52.832;4.758;2023-06-14T06:25:52;4.22;;;1.92;;
11490;SDS011;5802;52.832;4.758;2023-06-14T06:28:22;6.75;;;1.88;;
11490;SDS011;5802;52.832;4.758;2023-06-14T06:30:49;6.93;;;1.90;;
11490;SDS011;5802;52.832;4.758;2023-06-14T06:33:17;5.35;;;2.10;;
11490;SDS011;5802;52.832;4.758;2023-06-14T06:35:44;2.45;;;2.00;;
11490;SDS011;5802;52.832;4.758;2023-06-14T06:38:11;9.77;;;2.00;;
11490;SDS011;5802;52.832;4.758;2023-06-14T06:40:37;3.58;;;2.08;;
11490;SDS011;5802;52.832;4.758;2023-06-14T06:43:04;3.58;;;1.90;;
11490;SDS011;5802;52.832;4.758;2023-06-14T06:45:30;4.50;;;1.98;;
11490;SDS011;5802;52.832;4.758;2023-06-14T06:47:58;3.78;;;2.25;;
11490;SDS011;5802;52.832;4.758;2023-06-14T06:50:26;2.85;;;2.00;;
11490;SDS011;5802;52.832;4.758;2023-06-14T06:52:53;2.58;;;1.77;;
11490;SDS011;5802;52.832;4.758;2023-06-14T06:55:20;3.13;;;2.17;;
11490;SDS011;5802;52.832;4.758;2023-06-14T06:57:47;3.25;;;2.03;;
11490;SDS011;5802;52.832;4.758;2023-06-14T07:00:15;6.03;;;1.92;;
11490;SDS011;5802;52.832;4.758;2023-06-14T07:02:42;2.25;;;1.90;;
11490;SDS011;5802;52.832;4.758;2023-06-14T07:05:09;5.32;;;2.25;;
11490;SDS011;5802;52.832;4.758;2023-06-14T07:07:37;4.28;;;2.30;;
11490;SDS011;5802;52.832;4.758;2023-06-14T07:10:04;3.65;;;2.20;;
11490;SDS011;5802;52.832;4.758;2023-06-14T07:12:32;7.30;;;2.50;;
11490;SDS011;5802;52.832;4.758;2023-06-14T07:15:04;3.60;;;2.20;;
11490;SDS011;5802;52.832;4.758;2023-06-14T07:17:31;4.50;;;2.30;;
11490;SDS011;5802;52.832;4.758;2023-06-14T07:19:58;3.70;;;2.33;;
11490;SDS011;5802;52.832;4.758;2023-06-14T07:22:25;5.10;;;2.50;;
11490;SDS011;5802;52.832;4.758;2023-06-14T07:24:53;2.30;;;1.98;;
11490;SDS011;5802;52.832;4.758;2023-06-14T07:27:20;4.90;;;2.05;;
11490;SDS011;5802;52.832;4.758;2023-06-14T07:29:47;4.28;;;2.35;;
11490;SDS011;5802;52.832;4.758;2023-06-14T07:32:13;2.58;;;2.30;;
11490;SDS011;5802;52.832;4.758;2023-06-14T07:34:40;3.65;;;2.17;;
11490;SDS011;5802;52.832;4.758;2023-06-14T07:37:07;3.78;;;2.13;;
11490;SDS011;5802;52.832;4.758;2023-06-14T07:39:33;2.65;;;2.28;;
11490;SDS011;5802;52.832;4.758;2023-06-14T07:42:02;4.68;;;2.17;;
11490;SDS011;5802;52.832;4.758;2023-06-14T07:44:29;2.83;;;2.20;;
11490;SDS011;5802;52.832;4.758;2023-06-14T07:46:56;3.33;;;2.30;;
11490;SDS011;5802;52.832;4.758;2023-06-14T07:49:24;6.60;;;2.30;;
11490;SDS011;5802;52.832;4.758;2023-06-14T07:51:51;3.17;;;2.30;;
11490;SDS011;5802;52.832;4.758;2023-06-14T07:54:18;3.22;;;2.22;;
11490;SDS011;5802;52.832;4.758;2023-06-14T07:56:45;4.95;;;2.78;;
11490;SDS011;5802;52.832;4.758;2023-06-14T07:59:13;4.45;;;2.50;;
11490;SDS011;5802;52.832;4.758;2023-06-14T08:01:40;4.97;;;2.20;;
11490;SDS011;5802;52.832;4.758;2023-06-14T08:04:13;2.97;;;2.58;;
11490;SDS011;5802;52.832;4.758;2023-06-14T08:06:40;3.10;;;2.55;;
11490;SDS011;5802;52.832;4.758;2023-06-14T08:09:09;4.32;;;2.30;;
11490;SDS011;5802;52.832;4.758;2023-06-14T08:11:36;5.55;;;2.70;;
11490;SDS011;5802;52.832;4.758;2023-06-14T08:14:02;3.45;;;2.50;;
11490;SDS011;5802;52.832;4.758;2023-06-14T08:16:30;2.30;;;2.10;;
11490;SDS011;5802;52.832;4.758;2023-06-14T08:18:57;3.55;;;2.63;;
11490;SDS011;5802;52.832;4.758;2023-06-14T08:21:24;3.65;;;2.33;;
11490;SDS011;5802;52.832;4.758;2023-06-14T08:23:54;6.28;;;2.67;;
11490;SDS011;5802;52.832;4.758;2023-06-14T08:26:20;3.25;;;2.15;;
11490;SDS011;5802;52.832;4.758;2023-06-14T08:28:47;4.20;;;2.22;;
11490;SDS011;5802;52.832;4.758;2023-06-14T08:31:14;3.72;;;2.40;;
11490;SDS011;5802;52.832;4.758;2023-06-14T08:33:43;4.22;;;2.60;;
11490;SDS011;5802;52.832;4.758;2023-06-14T08:36:10;3.33;;;2.50;;
11490;SDS011;5802;52.832;4.758;2023-06-14T08:38:37;3.10;;;2.20;;
11490;SDS011;5802;52.832;4.758;2023-06-14T08:41:05;3.05;;;2.40;;
11490;SDS011;5802;52.832;4.758;2023-06-14T08:43:32;2.40;;;2.10;;
11490;SDS011;5802;52.832;4.758;2023-06-14T08:46:00;3.38;;;2.53;;
11490;SDS011;5802;52.832;4.758;2023-06-14T08:48:29;3.08;;;2.35;;
11490;SDS011;5802;52.832;4.758;2023-06-14T08:51:00;4.15;;;2.53;;
11490;SDS011;5802;52.832;4.758;2023-06-14T08:53:27;3.25;;;2.38;;
11490;SDS011;5802;52.832;4.758;2023-06-14T08:55:57;3.97;;;2.47;;
11490;SDS011;5802;52.832;4.758;2023-06-14T08:58:26;3.78;;;2.55;;
11490;SDS011;5802;52.832;4.758;2023-06-14T09:00:54;3.05;;;2.67;;
11490;SDS011;5802;52.832;4.758;2023-06-14T09:03:21;3.15;;;2.25;;
11490;SDS011;5802;52.832;4.758;2023-06-14T09:05:54;5.70;;;2.70;;
11490;SDS011;5802;52.832;4.758;2023-06-14T09:08:25;5.47;;;2.35;;
11490;SDS011;5802;52.832;4.758;2023-06-14T09:10:52;2.35;;;2.15;;
11490;SDS011;5802;52.832;4.758;2023-06-14T09:13:19;5.90;;;2.67;;
11490;SDS011;5802;52.832;4.758;2023-06-14T09:15:45;3.08;;;2.10;;
11490;SDS011;5802;52.832;4.758;2023-06-14T09:18:12;3.17;;;2.20;;
11490;SDS011;5802;52.832;4.758;2023-06-14T09:20:39;4.47;;;2.30;;
11490;SDS011;5802;52.832;4.758;2023-06-14T09:23:07;3.08;;;2.10;;
11490;SDS011;5802;52.832;4.758;2023-06-14T09:25:42;2.53;;;2.13;;
11490;SDS011;5802;52.832;4.758;2023-06-14T09:28:09;4.00;;;2.17;;
11490;SDS011;5802;52.832;4.758;2023-06-14T09:30:36;2.10;;;1.80;;
11490;SDS011;5802;52.832;4.758;2023-06-14T09:33:03;4.03;;;1.85;;
11490;SDS011;5802;52.832;4.758;2023-06-14T09:35:30;3.47;;;1.80;;
11490;SDS011;5802;52.832;4.758;2023-06-14T09:37:57;5.68;;;2.10;;
11490;SDS011;5802;52.832;4.758;2023-06-14T09:40:24;3.88;;;1.98;;
11490;SDS011;5802;52.832;4.758;2023-06-14T09:42:52;3.72;;;1.88;;
11490;SDS011;5802;52.832;4.758;2023-06-14T09:45:20;3.40;;;1.58;;
11490;SDS011;5802;52.832;4.758;2023-06-14T09:47:48;4.63;;;1.92;;
11490;SDS011;5802;52.832;4.758;2023-06-14T09:50:16;4.25;;;1.77;;
11490;SDS011;5802;52.832;4.758;2023-06-14T09:52:43;3.25;;;1.80;;
11490;SDS011;5802;52.832;4.758;2023-06-14T09:55:13;2.35;;;1.85;;
11490;SDS011;5802;52.832;4.758;2023-06-14T09:57:41;4.28;;;1.67;;
11490;SDS011;5802;52.832;4.758;2023-06-14T10:00:11;3.53;;;2.15;;
11490;SDS011;5802;52.832;4.758;2023-06-14T10:02:40;6.13;;;2.05;;
11490;SDS011;5802;52.832;4.758;2023-06-14T10:05:15;6.38;;;1.90;;
11490;SDS011;5802;52.832;4.758;2023-06-14T10:07:48;2.17;;;1.90;;
11490;SDS011;5802;52.832;4.758;2023-06-14T10:10:18;3.38;;;1.55;;
11490;SDS011;5802;52.832;4.758;2023-06-14T10:12:45;5.07;;;1.90;;
11490;SDS011;5802;52.832;4.758;2023-06-14T10:15:15;2.90;;;2.00;;
11490;SDS011;5802;52.832;4.758;2023-06-14T10:17:47;2.95;;;1.75;;
11490;SDS011;5802;52.832;4.758;2023-06-14T10:20:20;3.17;;;1.92;;
11490;SDS011;5802;52.832;4.758;2023-06-14T10:22:53;2.25;;;1.65;;
11490;SDS011;5802;52.832;4.758;2023-06-14T10:25:27;2.10;;;1.90;;
11490;SDS011;5802;52.832;4.758;2023-06-14T10:31:07;4.45;;;2.08;;
11490;SDS011;5802;52.832;4.758;2023-06-14T10:33:35;2.97;;;2.10;;
11490;SDS011;5802;52.832;4.758;2023-06-14T10:36:24;8.13;;;2.25;;
11490;SDS011;5802;52.832;4.758;2023-06-14T10:38:59;3.63;;;2.00;;
11490;SDS011;5802;52.832;4.758;2023-06-14T10:41:28;2.35;;;1.92;;
11490;SDS011;5802;52.832;4.758;2023-06-14T10:47:10;2.47;;;2.00;;
11490;SDS011;5802;52.832;4.758;2023-06-14T10:49:49;3.65;;;2.00;;
11490;SDS011;5802;52.832;4.758;2023-06-14T10:52:19;3.03;;;2.17;;
11490;SDS011;5802;52.832;4.758;2023-06-14T10:55:00;9.63;;;1.88;;
11490;SDS011;5802;52.832;4.758;2023-06-14T10:57:29;2.55;;;2.10;;
11490;SDS011;5802;52.832;4.758;2023-06-14T10:59:57;2.47;;;2.00;;
11490;SDS011;5802;52.832;4.758;2023-06-14T11:02:46;3.30;;;2.05;;
11490;SDS011;5802;52.832;4.758;2023-06-14T11:05:30;3.78;;;2.33;;
11490;SDS011;5802;52.832;4.758;2023-06-14T11:08:20;2.80;;;2.28;;
11490;SDS011;5802;52.832;4.758;2023-06-14T11:11:14;3.78;;;2.17;;
11490;SDS011;5802;52.832;4.758;2023-06-14T11:13:42;2.13;;;1.92;;
11490;SDS011;5802;52.832;4.758;2023-06-14T11:16:11;4.32;;;2.50;;
11490;SDS011;5802;52.832;4.758;2023-06-14T11:18:41;3.05;;;2.20;;
11490;SDS011;5802;52.832;4.758;2023-06-14T11:21:08;4.20;;;2.08;;
11490;SDS011;5802;52.832;4.758;2023-06-14T11:23:34;4.22;;;2.33;;
11490;SDS011;5802;52.832;4.758;2023-06-14T11:26:01;2.50;;;2.30;;
11490;SDS011;5802;52.832;4.758;2023-06-14T11:28:38;2.58;;;2.03;;
11490;SDS011;5802;52.832;4.758;2023-06-14T11:31:06;4.45;;;2.10;;
11490;SDS011;5802;52.832;4.758;2023-06-14T11:33:33;2.33;;;1.85;;
11490;SDS011;5802;52.832;4.758;2023-06-14T11:36:03;2.17;;;1.95;;
11490;SDS011;5802;52.832;4.758;2023-06-14T11:38:34;2.50;;;1.83;;
11490;SDS011;5802;52.832;4.758;2023-06-14T11:41:02;2.53;;;1.95;;
11490;SDS011;5802;52.832;4.758;2023-06-14T11:43:29;2.38;;;2.00;;
11490;SDS011;5802;52.832;4.758;2023-06-14T11:45:57;2.80;;;2.00;;
11490;SDS011;5802;52.832;4.758;2023-06-14T11:48:23;3.55;;;2.08;;
11490;SDS011;5802;52.832;4.758;2023-06-14T11:51:03;3.15;;;1.80;;
11490;SDS011;5802;52.832;4.758;2023-06-14T11:53:30;2.60;;;1.83;;
11490;SDS011;5802;52.832;4.758;2023-06-14T11:55:57;4.40;;;2.05;;
11490;SDS011;5802;52.832;4.758;2023-06-14T11:58:24;2.55;;;2.05;;
11490;SDS011;5802;52.832;4.758;2023-06-14T12:00:51;2.40;;;1.88;;
11490;SDS011;5802;52.832;4.758;2023-06-14T12:03:22;2.70;;;1.73;;
11490;SDS011;5802;52.832;4.758;2023-06-14T12:05:50;4.32;;;1.80;;
11490;SDS011;5802;52.832;4.758;2023-06-14T12:08:33;2.20;;;2.00;;
11490;SDS011;5802;52.832;4.758;2023-06-14T12:11:04;5.03;;;2.13;;
11490;SDS011;5802;52.832;4.758;2023-06-14T12:13:37;2.63;;;1.88;;
11490;SDS011;5802;52.832;4.758;2023-06-14T12:16:04;5.50;;;1.90;;
11490;SDS011;5802;52.832;4.758;2023-06-14T12:18:33;2.70;;;2.10;;
11490;SDS011;5802;52.832;4.758;2023-06-14T12:21:00;4.00;;;1.77;;
11490;SDS011;5802;52.832;4.758;2023-06-14T12:23:40;4.50;;;2.10;;
11490;SDS011;5802;52.832;4.758;2023-06-14T12:26:08;2.88;;;1.90;;
11490;SDS011;5802;52.832;4.758;2023-06-14T12:28:35;4.25;;;1.85;;
11490;SDS011;5802;52.832;4.758;2023-06-14T12:31:02;3.53;;;1.80;;
11490;SDS011;5802;52.832;4.758;2023-06-14T12:33:29;2.58;;;1.70;;
11490;SDS011;5802;52.832;4.758;2023-06-14T12:35:56;1.95;;;1.75;;
11490;SDS011;5802;52.832;4.758;2023-06-14T12:38:23;2.05;;;1.70;;
11490;SDS011;5802;52.832;4.758;2023-06-14T12:40:51;4.40;;;2.33;;
11490;SDS011;5802;52.832;4.758;2023-06-14T12:43:18;2.38;;;1.90;;
11490;SDS011;5802;52.832;4.758;2023-06-14T12:45:45;3.10;;;1.67;;
11490;SDS011;5802;52.832;4.758;2023-06-14T12:48:12;2.05;;;1.55;;
11490;SDS011;5802;52.832;4.758;2023-06-14T12:50:39;5.93;;;2.03;;
11490;SDS011;5802;52.832;4.758;2023-06-14T12:53:05;2.22;;;1.70;;
11490;SDS011;5802;52.832;4.758;2023-06-14T12:55:32;2.90;;;1.85;;
11490;SDS011;5802;52.832;4.758;2023-06-14T12:58:00;3.38;;;1.60;;
11490;SDS011;5802;52.832;4.758;2023-06-14T13:00:27;2.60;;;1.80;;
11490;SDS011;5802;52.832;4.758;2023-06-14T13:02:55;2.22;;;1.70;;
11490;SDS011;5802;52.832;4.758;2023-06-14T13:05:22;4.07;;;1.63;;
11490;SDS011;5802;52.832;4.758;2023-06-14T13:07:49;1.70;;;1.45;;
11490;SDS011;5802;52.832;4.758;2023-06-14T13:10:16;3.25;;;1.77;;
11490;SDS011;5802;52.832;4.758;2023-06-14T13:12:43;2.10;;;1.55;;
11490;SDS011;5802;52.832;4.758;2023-06-14T13:15:11;2.28;;;1.77;;
11490;SDS011;5802;52.832;4.758;2023-06-14T13:17:38;2.67;;;1.90;;
11490;SDS011;5802;52.832;4.758;2023-06-14T13:20:05;2.28;;;1.65;;
11490;SDS011;5802;52.832;4.758;2023-06-14T13:22:33;4.10;;;2.03;;
11490;SDS011;5802;52.832;4.758;2023-06-14T13:25:00;3.25;;;1.90;;
11490;SDS011;5802;52.832;4.758;2023-06-14T13:27:27;4.03;;;1.70;;
11490;SDS011;5802;52.832;4.758;2023-06-14T13:29:54;6.43;;;1.98;;
11490;SDS011;5802;52.832;4.758;2023-06-14T13:32:22;3.20;;;2.00;;
11490;SDS011;5802;52.832;4.758;2023-06-14T13:34:49;7.43;;;1.88;;
11490;SDS011;5802;52.832;4.758;2023-06-14T13:37:16;2.15;;;1.80;;
11490;SDS011;5802;52.832;4.758;2023-06-14T13:39:43;3.05;;;1.65;;
11490;SDS011;5802;52.832;4.758;2023-06-14T13:42:09;4.10;;;1.63;;
11490;SDS011;5802;52.832;4.758;2023-06-14T13:44:37;5.45;;;1.77;;
11490;SDS011;5802;52.832;4.758;2023-06-14T13:47:04;2.17;;;1.90;;
11490;SDS011;5802;52.832;4.758;2023-06-14T13:49:32;3.80;;;1.88;;
11490;SDS011;5802;52.832;4.758;2023-06-14T13:52:00;2.30;;;1.60;;
11490;SDS011;5802;52.832;4.758;2023-06-14T13:54:26;3.20;;;1.70;;
11490;SDS011;5802;52.832;4.758;2023-06-14T13:56:53;2.40;;;1.80;;
11490;SDS011;5802;52.832;4.758;2023-06-14T13:59:20;2.08;;;1.50;;
11490;SDS011;5802;52.832;4.758;2023-06-14T14:01:47;5.10;;;2.00;;
11490;SDS011;5802;52.832;4.758;2023-06-14T14:04:13;2.90;;;1.55;;
11490;SDS011;5802;52.832;4.758;2023-06-14T14:06:42;4.35;;;1.70;;
11490;SDS011;5802;52.832;4.758;2023-06-14T14:09:08;4.15;;;1.60;;
11490;SDS011;5802;52.832;4.758;2023-06-14T14:11:35;5.82;;;1.70;;
11490;SDS011;5802;52.832;4.758;2023-06-14T14:14:01;3.25;;;1.70;;
11490;SDS011;5802;52.832;4.758;2023-06-14T14:16:29;5.05;;;1.60;;
11490;SDS011;5802;52.832;4.758;2023-06-14T14:18:56;3.25;;;1.70;;
11490;SDS011;5802;52.832;4.758;2023-06-14T14:21:23;2.65;;;1.80;;
11490;SDS011;5802;52.832;4.758;2023-06-14T14:23:51;1.80;;;1.70;;
11490;SDS011;5802;52.832;4.758;2023-06-14T14:26:18;5.93;;;2.17;;
11490;SDS011;5802;52.832;4.758;2023-06-14T14:28:45;2.78;;;1.80;;
11490;SDS011;5802;52.832;4.758;2023-06-14T14:31:12;1.90;;;1.60;;
11490;SDS011;5802;52.832;4.758;2023-06-14T14:33:39;3.22;;;1.92;;
11490;SDS011;5802;52.832;4.758;2023-06-14T14:36:05;3.55;;;1.80;;
11490;SDS011;5802;52.832;4.758;2023-06-14T14:38:32;2.28;;;1.88;;
11490;SDS011;5802;52.832;4.758;2023-06-14T14:41:00;3.88;;;1.90;;
11490;SDS011;5802;52.832;4.758;2023-06-14T14:43:27;3.45;;;1.70;;
11490;SDS011;5802;52.832;4.758;2023-06-14T14:45:55;2.85;;;1.88;;
11490;SDS011;5802;52.832;4.758;2023-06-14T14:48:24;3.53;;;2.00;;
11490;SDS011;5802;52.832;4.758;2023-06-14T14:50:51;11.35;;;1.90;;
11490;SDS011;5802;52.832;4.758;2023-06-14T14:53:17;3.85;;;2.00;;
11490;SDS011;5802;52.832;4.758;2023-06-14T14:55:44;3.00;;;1.90;;
11490;SDS011;5802;52.832;4.758;2023-06-14T14:58:13;5.15;;;2.03;;
11490;SDS011;5802;52.832;4.758;2023-06-14T15:00:42;10.20;;;2.63;;
11490;SDS011;5802;52.832;4.758;2023-06-14T15:03:09;5.78;;;2.20;;
11490;SDS011;5802;52.832;4.758;2023-06-14T15:05:36;4.70;;;2.38;;
11490;SDS011;5802;52.832;4.758;2023-06-14T15:08:03;4.00;;;1.98;;
11490;SDS011;5802;52.832;4.758;2023-06-14T15:10:30;5.50;;;2.30;;
11490;SDS011;5802;52.832;4.758;2023-06-14T15:12:57;6.05;;;2.50;;